METAR AND TAF INFORMATION
METAR FOR SKMD
ADDS - METARS form results

(2109 UTC 26 March 2019)
Data provider http://aviationweather.gov/metar/data/
 
METAR text: SKMD 262100Z 36014KT 9999 SCT040CB SCT100 24/16 A3000 RMK CB/NW/NE
Conditions at: SKMD (MEDELLIN/OLAYA H, CO) observed 2100 UTC 26 March 2019
Temperature: 24.0°C (75°F)
Dewpoint: 16.0°C (61°F) [RH = 61%]
Pressure (altimeter): 30.00 inches Hg (1016.0 mb)
Winds: from the N (360 degrees) at 16 MPH (14 knots; 7.2 m/s)
Visibility: 6 or more miles (10+ km)
Ceiling: at least 12,000 feet AGL
Clouds: scattered clouds at 4000 feet AGL
scattered clouds at 10000 feet AGL
Weather: no significant weather observed at this time

 AIRPORT MAP

 RUNWAY INFORMATION
Runway 02 Runway length 8202 ft Runway width 125 ft
Runway elevation 4915 ft Runway displaced threshold 1312 ft Runway heading 16
Runway 20 Runway length 8202 ft Runway width 125 ft
Runway elevation 4921 ft Runway displaced threshold 984 ft Runway heading 196

 AIRPORT FREQUENCIES
Type APP Name MEDELLIN A Frequency 121.1 MHZ
Type GND Name GND Frequency 121.9 MHZ
Type TWR Name TWR Frequency 118.9 MHZ

 AIRPORT NEAR NAVIGATION AIDS



Powered by Virtual Airlines Manager [v2.6.2]